Aeroporto :
LOGIN :

Iscrizione | Disclaimer

   EN    FR    IT 

 










Sommario :    VFR   VFR Marginale   IFR   IFR Intensivo   IFR Molto Intensivo
Visibilità : 
Base nubi : 
>= 8 km
>= 3000ft
5 / 8 km
1000 / 3000 ft
1500m / 5 km
500 / 1000 ft
800 / 1500m
200 / 500 ft
< 800m
< 200 ft
Simboli :   Temporali  Nebbia  Neve Forte  Precipitazioni Forti  Vento > 20 kt
SIGMETs :   Varie  Temporali  Ghiacco  Turbolenza  Onda orograficha  Ceneri Vulcaniche






- Altitudine del aeroporto : 425 ft
- Codice IATA : DTM


EDLW - Dortmund

ULTIMO METAR :
  • 050050Z AUTO 00000KT 9999 // NCD 04/M01 Q1024

METARs OBSOLETI :
  • 050020Z AUTO 05003KT 9999 // NCD 04/M01 Q1024
  • 042350Z AUTO 06006KT 9999 // NCD 06/M01 Q1024
  • 042320Z AUTO 05005KT 9999 // NCD 06/M01 Q1024
  • 042250Z AUTO 06004KT 9999 // NCD 08/M01 Q1024
  • 042220Z AUTO 10006KT 9999 // NCD 08/M01 Q1024

TAF TAF EDLW
Valido dal 04 a 15 ore il 05 a 12 ore UTC


041420Z 0415/0512 08007KT CAVOK
BECMG 0419/0422 14007KT



MetMap, La meteo Aeronautica in un colpo d'occhio ! - Copyright ORBIFLY Dicembre 2007 - Disclaimer

ORBIFLY MET'MAP TEAM :

Programmazione e sviluppo : Alexandra Zaïnal
Concezione : Baudouin d'Aumeries
Aiuto per la programmazione : Marc-Olivier Méhu
Supporto tecnico e logistico : Manuel Goepfert
Aiuto per la traduzione : Arnaldo La Scala

Contatto : metmap@orbifly.com




FONTI E CREDITI :

   NOAA